Time;durP1;ratioP1;P1;durP2;ratioP2;P2;SDS_P1;SDS_P2;PMS_P1;PMS_P2;Temp;Humidity;BMP_temperature;BMP_pressure;BME280_temperature;BME280_humidity;BME280_pressure;Samples;Min_cycle;Max_cycle;Signal;HPM_P1;HPM_P2
2021/07/28 00:00:02;;;;;;;8.80;5.82;;;;;;;17.79;75.51;99809.13;5053588;28;20049;-70
2021/07/28 00:02:30;;;;;;;7.13;5.78;;;;;;;17.77;75.43;99808.69;5055399;28;20413;-70
2021/07/28 00:04:58;;;;;;;10.47;6.40;;;;;;;17.68;75.65;99803.31;5052766;28;20053;-70
2021/07/28 00:07:25;;;;;;;7.55;5.60;;;;;;;17.76;75.25;99804.22;5052629;28;20048;-70
2021/07/28 00:09:52;;;;;;;9.98;5.60;;;;;;;17.72;75.19;99809.78;5054332;28;20521;-70
2021/07/28 00:12:19;;;;;;;8.18;6.00;;;;;;;17.73;75.09;99796.56;5054848;28;20124;-70
2021/07/28 00:14:47;;;;;;;6.30;5.57;;;;;;;17.69;75.44;99793.66;5053033;28;20486;-70
2021/07/28 00:17:15;;;;;;;6.38;5.55;;;;;;;17.69;75.35;99790.06;5054246;28;20402;-70
2021/07/28 00:19:54;;;;;;;9.07;6.35;;;;;;;17.75;75.11;99799.81;5055100;28;20395;-70
2021/07/28 00:25:07;;;;;;;6.43;5.55;;;;;;;17.65;74.82;99784.34;5058949;28;20072;-70
2021/07/28 00:27:36;;;;;;;7.82;5.80;;;;;;;17.64;75.35;99791.19;5054214;28;20053;-70
2021/07/28 00:30:07;;;;;;;7.55;5.53;;;;;;;17.54;75.39;99789.81;5054206;28;20060;-70
2021/07/28 00:32:34;;;;;;;9.38;5.72;;;;;;;17.55;75.45;99790.63;5054090;28;20053;-70
2021/07/28 00:35:03;;;;;;;7.32;5.97;;;;;;;17.74;74.50;99776.44;5053927;28;20057;-70
2021/07/28 00:37:30;;;;;;;7.10;5.47;;;;;;;17.67;74.48;99789.63;5053987;28;20053;-70
2021/07/28 00:39:58;;;;;;;7.15;6.03;;;;;;;17.57;74.92;99782.63;5053630;28;20060;-70
2021/07/28 00:42:25;;;;;;;9.45;5.70;;;;;;;17.68;74.78;99789.25;5053044;28;20051;-70
2021/07/28 00:44:53;;;;;;;9.00;5.18;;;;;;;17.78;74.25;99774.47;5041149;28;20076;-70
2021/07/28 00:47:20;;;;;;;7.65;5.60;;;;;;;17.63;74.70;99775.47;5054616;28;20055;-70
2021/07/28 00:49:47;;;;;;;6.88;5.50;;;;;;;17.62;74.04;99773.88;5053771;28;20053;-70
2021/07/28 00:52:16;;;;;;;7.35;5.30;;;;;;;17.60;74.55;99767.78;5054107;28;20049;-70
2021/07/28 00:54:46;;;;;;;6.87;5.07;;;;;;;17.64;74.20;99765.84;5053887;28;20052;-70
2021/07/28 00:57:14;;;;;;;6.80;5.93;;;;;;;17.50;74.83;99766.44;5054008;28;20479;-70
2021/07/28 00:59:41;;;;;;;6.13;4.80;;;;;;;17.58;74.32;99762.53;5052739;28;20052;-70
2021/07/28 01:02:10;;;;;;;7.25;5.32;;;;;;;17.58;74.46;99768.16;5054596;28;20060;-69
2021/07/28 01:04:37;;;;;;;7.43;4.72;;;;;;;17.64;73.81;99761.03;5053692;28;20505;-69
2021/07/28 01:07:05;;;;;;;7.53;5.40;;;;;;;17.73;73.54;99768.38;5053525;28;20383;-69
2021/07/28 01:09:34;;;;;;;7.85;5.57;;;;;;;17.65;73.62;99768.25;5053663;28;20049;-69
2021/07/28 01:12:04;;;;;;;6.10;4.70;;;;;;;17.66;73.71;99766.28;5040992;28;20057;-69
2021/07/28 01:14:31;;;;;;;6.55;5.18;;;;;;;17.79;73.04;99767.66;5041937;28;20053;-69
2021/07/28 01:16:59;;;;;;;8.45;5.50;;;;;;;17.80;73.41;99763.66;5053288;28;20060;-69
2021/07/28 01:19:30;;;;;;;6.40;4.93;;;;;;;17.81;73.61;99762.47;5053179;28;20489;-69
2021/07/28 01:21:59;;;;;;;6.68;5.18;;;;;;;18.01;72.56;99773.63;5053398;28;20405;-69
2021/07/28 01:24:28;;;;;;;7.15;5.30;;;;;;;17.95;72.59;99761.88;5051277;28;20048;-69
2021/07/28 01:26:57;;;;;;;8.05;5.22;;;;;;;18.01;72.93;99756.72;5052946;28;20052;-69
2021/07/28 01:29:25;;;;;;;8.90;5.25;;;;;;;17.95;72.47;99753.41;5053280;28;20508;-69
2021/07/28 01:31:54;;;;;;;8.07;5.25;;;;;;;18.17;71.80;99757.34;5053444;28;20049;-69
2021/07/28 01:34:21;;;;;;;7.47;4.80;;;;;;;18.16;72.26;99750.06;5053030;28;20060;-69
2021/07/28 01:36:50;;;;;;;6.53;5.25;;;;;;;18.14;72.29;99751.63;5052872;28;20056;-69
2021/07/28 01:39:18;;;;;;;6.60;5.60;;;;;;;18.18;72.17;99761.75;5052698;28;20057;-69
2021/07/28 01:41:57;;;;;;;8.07;5.55;;;;;;;18.21;71.49;99761.00;5052157;28;20071;-69
2021/07/28 01:44:25;;;;;;;6.20;5.55;;;;;;;18.31;71.39;99764.34;5053194;28;20052;-69
2021/07/28 01:46:52;;;;;;;6.10;5.15;;;;;;;18.18;71.60;99758.94;5050954;28;20049;-69
2021/07/28 01:49:20;;;;;;;5.95;5.15;;;;;;;18.28;71.64;99751.00;5052734;28;20049;-69
2021/07/28 01:51:47;;;;;;;7.68;5.78;;;;;;;18.39;71.34;99763.22;5053111;28;20375;-69
2021/07/28 01:54:14;;;;;;;6.53;5.78;;;;;;;18.31;71.35;99762.34;5052740;28;20374;-69
2021/07/28 01:56:44;;;;;;;6.68;5.78;;;;;;;18.11;72.10;99758.06;5052325;28;20049;-69
2021/07/28 01:59:15;;;;;;;6.15;5.55;;;;;;;18.10;72.14;99762.06;5052268;28;20057;-69
2021/07/28 02:01:43;;;;;;;7.57;5.85;;;;;;;18.14;72.03;99748.81;5051620;28;20061;-69
2021/07/28 02:04:10;;;;;;;7.63;5.43;;;;;;;18.14;72.15;99740.38;5052227;28;20045;-69
2021/07/28 02:06:37;;;;;;;6.90;5.72;;;;;;;18.17;71.56;99753.72;5052754;28;20049;-69
2021/07/28 02:09:06;;;;;;;9.10;5.80;;;;;;;18.07;72.36;99757.19;5052484;28;20057;-69
2021/07/28 02:11:34;;;;;;;7.35;5.43;;;;;;;18.13;72.13;99753.66;5039737;28;20477;-69
2021/07/28 02:14:02;;;;;;;8.87;6.20;;;;;;;18.12;72.22;99751.22;5043360;28;20052;-69
2021/07/28 02:16:31;;;;;;;5.90;5.30;;;;;;;18.23;71.60;99767.06;5052361;28;20049;-69
2021/07/28 02:18:58;;;;;;;8.50;5.38;;;;;;;18.29;71.07;99763.91;5052207;28;20056;-69
2021/07/28 02:21:28;;;;;;;8.20;5.70;;;;;;;18.29;71.08;99756.28;5052288;28;20049;-69
2021/07/28 02:23:55;;;;;;;7.63;5.65;;;;;;;18.34;71.21;99755.13;5051369;28;20049;-69
2021/07/28 02:26:22;;;;;;;6.85;5.72;;;;;;;18.21;71.40;99760.19;5052438;28;20072;-69
2021/07/28 02:28:52;;;;;;;8.95;5.43;;;;;;;18.29;71.80;99755.44;5052051;28;20060;-69
2021/07/28 02:31:19;;;;;;;;;;;;;;;18.25;70.79;99750.59;5057213;28;20049;-69
2021/07/28 02:33:47;;;;;;;8.13;5.68;;;;;;;18.24;72.00;99753.78;5056458;28;19921;-70
2021/07/28 02:36:14;;;;;;;8.43;5.27;;;;;;;18.38;71.36;99747.50;5056654;28;20053;-70
2021/07/28 02:38:42;;;;;;;7.20;5.72;;;;;;;18.37;70.85;99741.06;5055332;28;20479;-70
2021/07/28 02:41:09;;;;;;;7.70;5.30;;;;;;;18.39;71.03;99743.47;5056745;28;20475;-68
2021/07/28 02:43:36;;;;;;;7.53;6.22;;;;;;;18.48;70.83;99755.28;5056630;28;20508;-68
2021/07/28 02:46:04;;;;;;;6.88;5.25;;;;;;;18.43;70.91;99747.16;5055866;28;20056;-68
2021/07/28 02:48:31;;;;;;;7.35;5.80;;;;;;;18.45;70.72;99741.94;5056636;28;20053;-68
2021/07/28 02:51:00;;;;;;;7.95;5.70;;;;;;;18.53;70.78;99748.47;5056019;28;20049;-68
2021/07/28 02:53:27;;;;;;;8.15;6.28;;;;;;;18.38;71.01;99747.50;5055871;28;20481;-68
2021/07/28 02:55:55;;;;;;;8.00;5.78;;;;;;;18.47;70.94;99742.38;5055890;28;20107;-68
2021/07/28 02:58:22;;;;;;;6.63;5.80;;;;;;;18.48;70.92;99738.38;5055705;28;20505;-68
2021/07/28 03:00:50;;;;;;;8.02;6.35;;;;;;;18.39;71.00;99740.66;5056033;28;20071;-68
2021/07/28 03:03:17;;;;;;;10.25;6.00;;;;;;;18.36;70.84;99735.81;5055470;28;20045;-68
2021/07/28 03:05:44;;;;;;;8.32;6.25;;;;;;;18.34;71.12;99735.38;5055908;28;20049;-68
2021/07/28 03:08:13;;;;;;;8.73;6.28;;;;;;;18.19;71.56;99738.03;5054483;28;20052;-68
2021/07/28 03:10:40;;;;;;;8.65;6.38;;;;;;;18.36;71.17;99736.63;5055941;28;20080;-68
2021/07/28 03:13:07;;;;;;;9.38;6.10;;;;;;;18.46;70.50;99737.94;5055884;28;20401;-69
2021/07/28 03:15:35;;;;;;;9.30;6.40;;;;;;;18.30;70.73;99734.53;5055550;28;20056;-69
2021/07/28 03:18:02;;;;;;;9.73;6.45;;;;;;;18.10;72.10;99726.25;5055702;28;20061;-69
2021/07/28 03:20:29;;;;;;;7.55;6.10;;;;;;;18.22;71.88;99727.97;5055760;28;20057;-69
2021/07/28 03:22:57;;;;;;;9.00;6.00;;;;;;;18.28;70.99;99725.66;5055329;28;20064;-69
2021/07/28 03:25:26;;;;;;;7.78;6.05;;;;;;;18.28;71.67;99720.81;5053944;28;20094;-69
2021/07/28 03:27:53;;;;;;;8.68;6.25;;;;;;;18.15;72.42;99722.28;5055521;28;20068;-69
2021/07/28 03:30:20;;;;;;;7.53;5.85;;;;;;;17.73;73.21;99729.75;5055245;28;20060;-70
2021/07/28 03:32:48;;;;;;;7.18;5.35;;;;;;;18.03;72.69;99720.50;5055422;28;20060;-69
2021/07/28 03:35:15;;;;;;;7.70;6.35;;;;;;;17.94;73.26;99720.81;5054675;28;20049;-69
2021/07/28 03:37:42;;;;;;;7.15;5.93;;;;;;;17.88;73.46;99719.53;5055329;28;20080;-69
2021/07/28 03:40:13;;;;;;;9.02;6.35;;;;;;;17.99;73.17;99725.28;5053594;28;20111;-69
2021/07/28 03:42:44;;;;;;;8.07;6.05;;;;;;;17.93;73.28;99718.38;5055366;28;20049;-69
2021/07/28 03:45:12;;;;;;;7.78;5.78;;;;;;;17.82;73.90;99721.84;5055156;28;20053;-69
2021/07/28 03:47:40;;;;;;;8.48;6.40;;;;;;;17.96;73.26;99715.59;5054880;28;20504;-69
2021/07/28 03:50:08;;;;;;;7.40;6.55;;;;;;;17.91;73.46;99710.31;5055004;28;20053;-69
2021/07/28 03:52:35;;;;;;;9.13;6.70;;;;;;;17.91;73.78;99715.13;5054980;28;20068;-69
2021/07/28 03:55:03;;;;;;;8.65;7.05;;;;;;;17.90;73.80;99721.97;5054191;28;20049;-69
2021/07/28 03:57:30;;;;;;;8.93;6.82;;;;;;;17.95;73.42;99710.34;5055528;28;20053;-69
2021/07/28 03:59:59;;;;;;;8.82;6.68;;;;;;;17.81;73.69;99714.56;5054867;28;20061;-69
2021/07/28 04:02:26;;;;;;;8.43;6.93;;;;;;;18.03;73.41;99706.41;5055055;28;20052;-69
2021/07/28 04:04:53;;;;;;;8.63;6.63;;;;;;;18.02;73.55;99724.53;5054755;28;20060;-69
2021/07/28 04:07:21;;;;;;;8.52;6.32;;;;;;;18.02;73.74;99708.44;5054618;28;20391;-69
2021/07/28 04:09:48;;;;;;;11.00;7.20;;;;;;;18.08;73.22;99716.53;5054160;28;20057;-69
2021/07/28 04:12:16;;;;;;;8.45;6.60;;;;;;;18.17;73.23;99709.41;5054806;28;20053;-69
2021/07/28 04:14:43;;;;;;;9.05;7.28;;;;;;;18.07;73.44;99710.09;5054436;28;20068;-69
2021/07/28 04:17:12;;;;;;;7.97;7.18;;;;;;;18.05;73.70;99718.13;5053870;28;20041;-69
2021/07/28 04:19:43;;;;;;;8.82;7.38;;;;;;;18.20;72.64;99714.25;5054379;28;20049;-69
2021/07/28 04:22:10;;;;;;;8.25;7.22;;;;;;;18.18;73.04;99711.03;5054482;28;20053;-69
2021/07/28 04:24:38;;;;;;;8.32;7.13;;;;;;;18.32;72.53;99709.59;5053210;28;20475;-69
2021/07/28 04:27:06;;;;;;;8.23;7.20;;;;;;;18.20;72.88;99714.25;5054654;28;20056;-69
2021/07/28 04:29:33;;;;;;;8.68;7.15;;;;;;;18.35;72.14;99711.63;5054384;28;20053;-69
2021/07/28 04:32:00;;;;;;;9.07;7.57;;;;;;;18.31;72.50;99720.06;5054579;28;20052;-69
2021/07/28 04:34:29;;;;;;;7.70;6.65;;;;;;;18.39;72.26;99718.91;5053845;28;20409;-69
2021/07/28 04:36:56;;;;;;;10.20;7.25;;;;;;;18.19;72.54;99717.50;5054270;28;20052;-69
2021/07/28 04:39:23;;;;;;;8.30;6.70;;;;;;;18.35;72.39;99726.53;5051516;28;20049;-69
2021/07/28 04:41:51;;;;;;;8.93;7.03;;;;;;;18.24;72.80;99720.75;5054368;28;20049;-69
2021/07/28 04:44:18;;;;;;;11.60;8.70;;;;;;;18.40;71.75;99722.56;5053925;28;20060;-69
2021/07/28 04:46:45;;;;;;;10.60;7.25;;;;;;;18.20;72.08;99717.09;5054343;28;20056;-69
2021/07/28 04:49:13;;;;;;;9.77;7.57;;;;;;;18.34;72.22;99730.53;5054029;28;20453;-69
2021/07/28 04:51:41;;;;;;;11.30;7.55;;;;;;;18.34;71.94;99726.94;5053572;28;20048;-69
2021/07/28 04:54:08;;;;;;;9.37;7.87;;;;;;;18.46;71.56;99724.66;5052004;28;20053;-69
2021/07/28 04:56:36;;;;;;;11.27;7.45;;;;;;;18.35;71.66;99725.72;5048699;28;20049;-69
2021/07/28 04:59:04;;;;;;;9.18;7.28;;;;;;;18.33;72.13;99728.09;5053379;28;20067;-69
2021/07/28 05:01:31;;;;;;;9.23;7.43;;;;;;;18.28;72.40;99722.81;5053621;28;20060;-69
2021/07/28 05:03:58;;;;;;;10.95;7.20;;;;;;;18.22;72.43;99728.78;5053399;28;20071;-69
2021/07/28 05:06:25;;;;;;;9.18;7.50;;;;;;;18.38;72.02;99724.97;5053334;28;20060;-69
2021/07/28 05:08:54;;;;;;;10.88;7.68;;;;;;;18.58;71.45;99722.75;5053521;28;20049;-69
2021/07/28 05:11:22;;;;;;;7.72;6.80;;;;;;;18.63;70.80;99730.88;5049602;28;20049;-69
2021/07/28 05:13:49;;;;;;;10.05;7.28;;;;;;;18.65;70.97;99725.66;5050576;28;20142;-69
2021/07/28 05:16:16;;;;;;;7.70;6.90;;;;;;;18.68;71.11;99750.25;5044823;28;20379;-69
2021/07/28 05:18:44;;;;;;;9.27;7.22;;;;;;;18.57;71.00;99750.13;5052048;28;20414;-69
2021/07/28 05:21:11;;;;;;;9.43;7.10;;;;;;;18.49;71.13;99734.34;5050774;28;20052;-69
2021/07/28 05:23:38;;;;;;;9.75;7.68;;;;;;;18.66;70.64;99744.19;5052229;28;20052;-69
2021/07/28 05:26:07;;;;;;;12.93;7.38;;;;;;;18.69;70.79;99734.97;5053160;28;20524;-69
2021/07/28 05:28:34;;;;;;;8.80;7.25;;;;;;;18.90;69.79;99734.38;5053131;28;20406;-69
2021/07/28 05:31:02;;;;;;;11.82;7.30;;;;;;;18.91;69.81;99741.63;5053008;28;20057;-69
2021/07/28 05:33:29;;;;;;;10.13;7.25;;;;;;;18.87;70.02;99746.44;5052934;28;20063;-69
2021/07/28 05:35:56;;;;;;;8.85;6.88;;;;;;;19.00;69.26;99744.97;5049872;28;20049;-69
2021/07/28 05:38:24;;;;;;;10.68;6.90;;;;;;;19.22;69.16;99731.03;5050429;28;20049;-69
2021/07/28 05:40:55;;;;;;;8.32;6.90;;;;;;;19.37;67.68;99740.41;5041193;28;20049;-69
2021/07/28 05:43:25;;;;;;;8.20;6.75;;;;;;;19.41;68.18;99746.88;5047079;28;20056;-69
2021/07/28 05:45:52;;;;;;;9.82;6.90;;;;;;;19.43;67.94;99745.28;5052368;28;20053;-69
2021/07/28 05:48:19;;;;;;;7.70;6.45;;;;;;;19.64;67.61;99749.47;5048968;28;20056;-69
2021/07/28 05:50:50;;;;;;;7.35;6.35;;;;;;;19.44;67.97;99746.94;5037634;28;20045;-51
2021/07/28 05:53:17;;;;;;;7.13;6.07;;;;;;;19.21;68.26;99740.66;5052291;28;20045;-52
2021/07/28 05:55:45;;;;;;;8.98;6.43;;;;;;;19.06;69.52;99740.56;5049788;28;20057;-53
2021/07/28 05:58:12;;;;;;;7.30;6.15;;;;;;;19.28;68.57;99735.09;5051484;28;20425;-49
2021/07/28 06:00:41;;;;;;;7.18;6.35;;;;;;;19.54;67.34;99733.25;5049087;28;20052;-50
2021/07/28 06:03:08;;;;;;;7.75;5.75;;;;;;;19.49;68.02;99731.63;5045815;28;20483;-49
2021/07/28 06:05:35;;;;;;;7.53;6.30;;;;;;;19.26;68.67;99729.84;5050793;28;20052;-50
2021/07/28 06:08:03;;;;;;;6.85;5.38;;;;;;;19.62;66.84;99735.72;5051655;28;20052;-68
2021/07/28 06:10:30;;;;;;;7.05;6.07;;;;;;;20.31;65.22;99722.75;5047822;28;20049;-69
2021/07/28 06:13:00;;;;;;;6.53;5.60;;;;;;;20.78;63.64;99720.88;5032223;28;20053;-69
2021/07/28 06:15:27;;;;;;;5.80;5.20;;;;;;;21.01;62.29;99717.66;5051567;28;20049;-69
2021/07/28 06:17:57;;;;;;;6.70;5.35;;;;;;;20.90;62.51;99719.66;5052262;28;20053;-69
2021/07/28 06:20:24;;;;;;;7.28;5.63;;;;;;;21.21;61.50;99731.41;5049488;28;20517;-69
2021/07/28 06:22:52;;;;;;;8.10;6.00;;;;;;;20.99;62.29;99722.91;5046420;28;20056;-69
2021/07/28 06:25:19;;;;;;;8.18;5.80;;;;;;;21.33;61.59;99730.19;5050174;28;20052;-69
2021/07/28 06:27:49;;;;;;;7.43;5.60;;;;;;;21.60;61.03;99731.38;5051409;28;20049;-69
2021/07/28 06:30:18;;;;;;;6.22;5.20;;;;;;;21.59;61.07;99726.94;5051362;28;20064;-69
2021/07/28 06:32:45;;;;;;;6.10;5.28;;;;;;;21.43;60.67;99721.69;5051994;28;20064;-69
2021/07/28 06:35:14;;;;;;;7.90;5.65;;;;;;;21.60;60.47;99724.91;5052087;28;20053;-69
2021/07/28 06:37:42;;;;;;;6.97;5.18;;;;;;;21.38;61.43;99718.47;5052704;28;20474;-69
2021/07/28 06:40:10;;;;;;;5.70;4.72;;;;;;;21.36;61.13;99733.03;5052032;28;20078;-69
2021/07/28 06:42:37;;;;;;;6.22;5.00;;;;;;;21.60;59.94;99720.03;5051849;28;20405;-69
2021/07/28 06:45:05;;;;;;;7.78;5.70;;;;;;;21.83;59.27;99715.94;5046887;28;20496;-69
2021/07/28 06:47:33;;;;;;;5.35;4.85;;;;;;;21.76;59.69;99724.47;5045835;28;20052;-68
2021/07/28 06:50:00;;;;;;;6.15;4.88;;;;;;;21.94;59.41;99724.41;5046921;28;20512;-68
2021/07/28 06:52:29;;;;;;;6.40;4.88;;;;;;;22.24;58.21;99724.72;5049535;28;20068;-68
2021/07/28 06:54:56;;;;;;;7.32;5.03;;;;;;;22.13;57.77;99718.25;5049570;28;20064;-68
2021/07/28 06:57:23;;;;;;;6.65;4.70;;;;;;;22.22;57.81;99732.00;5045318;28;20060;-68
2021/07/28 06:59:52;;;;;;;6.30;4.50;;;;;;;22.10;58.02;99719.88;5046917;28;20056;-68
2021/07/28 07:02:19;;;;;;;6.33;4.53;;;;;;;21.68;59.28;99718.00;5049835;28;20045;-68
2021/07/28 07:04:47;;;;;;;6.25;4.72;;;;;;;21.45;59.76;99724.13;5048456;28;20487;-69
2021/07/28 07:07:14;;;;;;;6.68;4.95;;;;;;;21.68;59.22;99732.19;5044191;28;20053;-69
2021/07/28 07:09:42;;;;;;;6.35;4.55;;;;;;;21.51;60.24;99741.53;5046443;28;20060;-68
2021/07/28 07:12:10;;;;;;;6.30;4.63;;;;;;;21.38;60.83;99741.13;5050535;28;20509;-68
2021/07/28 07:14:39;;;;;;;4.97;4.25;;;;;;;21.26;60.61;99745.16;5050744;28;20055;-68
2021/07/28 07:17:07;;;;;;;6.70;4.78;;;;;;;21.08;61.75;99733.81;5053236;28;20057;-68
2021/07/28 07:19:34;;;;;;;5.93;4.45;;;;;;;21.44;60.78;99728.16;5054229;28;20068;-69
2021/07/28 07:22:01;;;;;;;6.28;4.65;;;;;;;21.51;60.44;99727.38;5053943;28;20049;-69
2021/07/28 07:24:29;;;;;;;4.72;4.22;;;;;;;21.72;60.51;99729.34;5052269;28;20056;-69
2021/07/28 07:26:57;;;;;;;5.97;4.47;;;;;;;21.65;59.89;99730.19;5053776;28;20061;-68
2021/07/28 07:29:25;;;;;;;5.05;4.20;;;;;;;21.42;60.76;99741.97;5054183;28;20048;-69
2021/07/28 07:31:53;;;;;;;6.28;4.70;;;;;;;21.13;61.64;99738.28;5054251;28;20057;-69
2021/07/28 07:34:20;;;;;;;6.15;4.80;;;;;;;21.20;61.80;99738.28;5046452;28;20056;-69
2021/07/28 07:36:48;;;;;;;5.78;4.63;;;;;;;21.15;61.54;99739.50;5052981;28;20061;-69
2021/07/28 07:39:15;;;;;;;5.18;4.07;;;;;;;21.27;61.06;99743.94;5051924;28;20060;-69
2021/07/28 07:41:42;;;;;;;6.97;4.80;;;;;;;21.04;61.66;99730.19;5053701;28;20045;-69
2021/07/28 07:44:12;;;;;;;6.95;4.43;;;;;;;21.18;61.63;99738.69;5047477;28;20048;-69
2021/07/28 07:46:39;;;;;;;9.57;5.38;;;;;;;20.79;65.63;99736.66;5054396;28;20060;-69
2021/07/28 07:49:06;;;;;;;9.05;5.72;;;;;;;21.03;65.21;99735.03;5053568;28;20053;-69
2021/07/28 07:51:34;;;;;;;7.28;4.90;;;;;;;21.22;63.84;99728.16;5052998;28;20052;-69
2021/07/28 07:54:01;;;;;;;6.78;5.30;;;;;;;21.32;63.95;99725.75;5046164;28;20390;-69
2021/07/28 07:56:28;;;;;;;6.35;4.75;;;;;;;21.22;62.61;99728.16;5052966;28;20504;-69
2021/07/28 07:58:58;;;;;;;5.57;4.90;;;;;;;21.26;62.58;99725.34;5046315;28;20056;-69
2021/07/28 08:01:27;;;;;;;6.75;4.57;;;;;;;21.62;60.88;99719.66;5052080;28;20048;-69
2021/07/28 08:03:54;;;;;;;5.20;4.70;;;;;;;22.00;59.91;99720.72;5049995;28;20053;-69
2021/07/28 08:06:22;;;;;;;6.50;4.88;;;;;;;22.51;57.90;99724.19;5048639;28;20049;-69
2021/07/28 08:08:49;;;;;;;5.97;4.75;;;;;;;23.08;56.39;99703.94;5047777;28;20494;-69
2021/07/28 08:11:16;;;;;;;5.93;4.43;;;;;;;23.88;54.40;99716.16;5044884;28;20065;-70
2021/07/28 08:13:44;;;;;;;5.00;4.00;;;;;;;23.43;54.47;99719.03;5045542;28;20063;-69
2021/07/28 08:16:13;;;;;;;6.05;4.82;;;;;;;23.61;54.69;99712.38;5045083;28;20060;-69
2021/07/28 08:18:41;;;;;;;6.30;4.70;;;;;;;24.36;52.05;99705.81;5041447;28;20488;-69
2021/07/28 08:21:09;;;;;;;5.53;3.92;;;;;;;25.12;49.44;99696.94;5049345;28;20052;-70
2021/07/28 08:23:37;;;;;;;6.18;4.80;;;;;;;25.30;49.19;99713.75;5046711;28;20053;-69
2021/07/28 08:26:05;;;;;;;6.05;5.03;;;;;;;26.25;46.51;99703.78;5047090;28;20060;-69
2021/07/28 08:28:32;;;;;;;5.00;3.65;;;;;;;27.87;43.06;99689.19;5043948;28;20072;-68
2021/07/28 08:31:00;;;;;;;6.32;4.38;;;;;;;26.46;45.57;99701.69;5046328;28;20060;-67
2021/07/28 08:33:28;;;;;;;5.97;4.38;;;;;;;24.97;49.01;99707.75;5044219;28;20481;-67
2021/07/28 08:35:59;;;;;;;6.57;4.67;;;;;;;25.68;47.44;99711.44;5047983;28;20052;-67
2021/07/28 08:38:27;;;;;;;6.88;4.45;;;;;;;25.01;48.64;99707.69;5044873;28;20049;-68
2021/07/28 08:41:00;;;;;;;6.03;4.88;;;;;;;24.45;50.87;99708.91;5051521;28;20053;-68
2021/07/28 08:43:30;;;;;;;6.35;4.70;;;;;;;24.18;51.43;99713.75;5049329;28;20061;-68
2021/07/28 08:46:01;;;;;;;5.97;4.15;;;;;;;24.36;51.25;99719.22;5047239;28;20068;-68
2021/07/28 08:48:29;;;;;;;7.38;4.95;;;;;;;23.69;53.27;99708.22;5050075;28;20060;-68
2021/07/28 08:50:59;;;;;;;6.13;4.72;;;;;;;24.00;52.08;99711.97;5045962;28;20060;-68
2021/07/28 08:53:28;;;;;;;6.28;4.78;;;;;;;24.75;50.39;99717.88;5048592;28;20477;-68
2021/07/28 08:55:56;;;;;;;5.97;4.40;;;;;;;25.97;46.92;99707.22;5051330;28;20048;-68
2021/07/28 08:58:25;;;;;;;6.80;4.20;;;;;;;26.01;46.63;99710.81;5051748;28;20080;-68
2021/07/28 09:00:55;;;;;;;6.03;4.18;;;;;;;26.11;46.57;99729.75;5049685;28;20052;-68
2021/07/28 09:03:22;;;;;;;7.10;4.40;;;;;;;25.72;48.26;99714.19;5044143;28;20053;-68
2021/07/28 09:05:51;;;;;;;5.05;3.90;;;;;;;26.27;46.02;99709.03;5049974;28;20501;-68
2021/07/28 09:08:25;;;;;;;6.00;4.13;;;;;;;26.40;45.90;99706.31;5047160;28;20053;-68
2021/07/28 09:10:53;;;;;;;5.57;3.95;;;;;;;25.98;46.24;99709.66;5048028;28;20053;-68
2021/07/28 09:13:34;;;;;;;24.30;6.82;;;;;;;23.99;59.89;99738.78;5046292;28;20573;-68
2021/07/28 09:16:03;;;;;;;67.45;10.23;;;;;;;20.42;82.41;99743.41;5048877;28;20052;-69
2021/07/28 09:18:34;;;;;;;108.38;15.68;;;;;;;19.52;96.37;99752.59;5050284;28;20386;-67
2021/07/28 09:21:03;;;;;;;39.47;14.50;;;;;;;19.37;100.00;99780.75;5051333;28;20064;-67
2021/07/28 09:23:41;;;;;;;38.35;15.15;;;;;;;18.97;100.00;99785.22;5044156;28;20061;-66
2021/07/28 09:26:32;;;;;;;19.05;11.63;;;;;;;18.40;98.52;99778.97;5051394;28;20053;-66
2021/07/28 09:29:04;;;;;;;10.00;7.72;;;;;;;18.24;98.58;99784.78;5051042;28;20052;-66
2021/07/28 09:31:40;;;;;;;10.27;7.40;;;;;;;18.12;98.09;99785.88;5051413;28;20052;-66
2021/07/28 09:34:35;;;;;;;11.77;8.00;;;;;;;18.43;99.44;99786.63;5051228;28;20057;-65
2021/07/28 09:37:10;;;;;;;12.93;7.63;;;;;;;18.31;99.42;99781.25;5046600;28;20056;-65
2021/07/28 09:39:40;;;;;;;10.82;6.65;;;;;;;18.45;99.24;99787.06;5044837;28;20053;-65
2021/07/28 09:42:11;;;;;;;8.48;6.15;;;;;;;18.14;98.86;99783.47;5050989;28;20057;-65
2021/07/28 09:44:40;;;;;;;10.63;7.10;;;;;;;18.15;97.58;99785.09;5051002;28;20052;-66
2021/07/28 09:47:09;;;;;;;13.45;7.82;;;;;;;18.03;95.93;99782.50;5039873;28;20057;-65
2021/07/28 09:49:38;;;;;;;13.00;8.75;;;;;;;18.04;97.81;99778.50;5031764;28;20057;-65
2021/07/28 09:52:23;;;;;;;12.38;8.52;;;;;;;18.32;98.56;99772.41;5035585;28;20057;-65
2021/07/28 09:54:53;;;;;;;14.65;9.25;;;;;;;18.34;97.73;99763.56;5049088;28;20057;-66
2021/07/28 09:57:21;;;;;;;13.73;9.13;;;;;;;18.28;97.66;99770.75;5039285;28;20057;-66
2021/07/28 09:59:54;;;;;;;13.70;9.27;;;;;;;18.59;97.18;99769.50;5039448;28;20409;-65
2021/07/28 10:02:23;;;;;;;12.45;9.23;;;;;;;18.47;95.82;99776.22;5051786;28;20509;-65
2021/07/28 10:04:52;;;;;;;11.48;9.60;;;;;;;18.61;94.47;99775.56;5052660;28;20070;-66
2021/07/28 10:07:20;;;;;;;14.03;9.67;;;;;;;18.58;94.66;99767.88;5043535;28;20052;-66
2021/07/28 10:09:56;;;;;;;12.25;9.35;;;;;;;19.40;93.62;99768.69;5040920;28;20053;-66
2021/07/28 10:12:24;;;;;;;13.55;9.38;;;;;;;19.90;94.10;99770.25;5042959;28;20049;-66
2021/07/28 10:14:52;;;;;;;15.70;9.80;;;;;;;21.52;88.96;99754.47;5041606;28;20052;-66
2021/07/28 10:17:20;;;;;;;9.55;8.38;;;;;;;22.65;86.50;99755.31;5037914;28;20753;-66
2021/07/28 10:19:49;;;;;;;8.32;7.55;;;;;;;22.88;80.38;99759.63;5034821;28;20057;-66
2021/07/28 10:22:17;;;;;;;8.55;7.65;;;;;;;23.50;77.52;99758.75;5036010;28;20052;-66
2021/07/28 10:24:47;;;;;;;7.53;6.80;;;;;;;24.51;77.44;99752.78;5038910;28;20053;-66
2021/07/28 10:27:17;;;;;;;8.73;7.90;;;;;;;24.58;72.00;99757.56;5039960;28;20053;-66
2021/07/28 10:29:44;;;;;;;8.55;7.75;;;;;;;25.37;68.21;99745.00;5040644;28;20045;-66
2021/07/28 10:32:30;;;;;;;8.07;7.28;;;;;;;26.75;76.03;99741.03;5039932;28;20060;-67
2021/07/28 10:35:23;;;;;;;7.88;6.53;;;;;;;27.34;57.27;99734.34;5033669;28;20425;-68
2021/07/28 10:37:51;;;;;;;7.18;6.47;;;;;;;30.26;49.81;99719.00;5037179;28;20460;-67
2021/07/28 10:40:51;;;;;;;7.53;6.13;;;;;;;30.97;45.49;99720.38;5036773;28;20478;-67
2021/07/28 10:43:19;;;;;;;8.75;6.35;;;;;;;30.65;46.53;99713.81;4983280;28;20061;-67
2021/07/28 10:45:55;;;;;;;6.45;5.85;;;;;;;31.30;40.77;99717.75;5037375;28;20049;-67
2021/07/28 10:49:01;;;;;;;6.88;6.18;;;;;;;32.89;43.11;99711.41;5050692;28;20462;-67
2021/07/28 10:51:55;;;;;;;5.90;5.18;;;;;;;33.09;40.71;99708.75;5047585;28;20056;-68
2021/07/28 10:54:59;;;;;;;5.90;5.28;;;;;;;31.79;39.16;99715.25;5049093;28;20122;-67
2021/07/28 10:58:14;;;;;;;5.03;4.47;;;;;;;31.98;42.86;99704.53;5049034;28;20072;-67
2021/07/28 11:00:58;;;;;;;6.22;5.32;;;;;;;31.02;40.96;99701.72;4961705;28;20054;-67
2021/07/28 11:03:39;;;;;;;6.30;5.28;;;;;;;32.05;36.85;99696.41;4970562;28;20058;-67
2021/07/28 11:06:23;;;;;;;4.80;4.30;;;;;;;32.72;38.36;99694.50;5029878;28;20056;-67
2021/07/28 11:08:52;;;;;;;5.38;4.45;;;;;;;33.48;38.08;99685.72;5053161;28;20053;-67
2021/07/28 11:11:26;;;;;;;;;;;;;;;31.15;36.97;99700.28;5055572;28;20500;-67
2021/07/28 11:13:54;;;;;;;6.53;4.50;;;;;;;31.52;39.75;99685.19;5048801;28;19928;-68
2021/07/28 11:16:24;;;;;;;6.60;3.95;;;;;;;33.65;36.13;99691.09;5053840;28;20517;-67
2021/07/28 11:18:52;;;;;;;3.67;3.22;;;;;;;33.22;33.91;99687.50;5050968;28;20053;-67
2021/07/28 11:21:22;;;;;;;6.22;3.78;;;;;;;31.96;36.10;99688.56;5053989;28;20056;-67
2021/07/28 11:23:51;;;;;;;5.40;3.65;;;;;;;30.75;36.38;99689.59;5052577;28;20083;-68
2021/07/28 11:26:22;;;;;;;5.15;3.40;;;;;;;29.39;39.59;99686.06;5053807;28;20059;-67
2021/07/28 11:28:52;;;;;;;3.67;3.00;;;;;;;30.72;37.43;99687.69;5052699;28;20445;-67
2021/07/28 11:31:36;;;;;;;5.72;3.72;;;;;;;31.85;34.55;99682.47;5051630;28;20057;-68
2021/07/28 11:34:09;;;;;;;4.18;3.10;;;;;;;32.16;34.64;99690.94;5050637;28;20052;-67
2021/07/28 11:36:36;;;;;;;4.22;3.20;;;;;;;32.44;32.63;99695.84;5053322;28;20057;-67
2021/07/28 11:39:08;;;;;;;3.85;3.33;;;;;;;33.78;30.06;99688.72;5052830;28;20045;-67
2021/07/28 11:41:35;;;;;;;5.10;3.08;;;;;;;32.85;30.31;99700.03;5053152;28;20517;-67
2021/07/28 11:44:02;;;;;;;3.80;3.00;;;;;;;30.90;33.29;99686.16;5052785;28;20478;-67